Time;durP1;ratioP1;P1;durP2;ratioP2;P2;SDS_P1;SDS_P2;PMS_P1;PMS_P2;Temp;Humidity;BMP_temperature;BMP_pressure;BME280_temperature;BME280_humidity;BME280_pressure;Samples;Min_cycle;Max_cycle;Signal;HPM_P1;HPM_P2
2022/11/22 00:01:49;;;;;;;2.70;0.52;;;17.50;99.90;;;;;;7401357;19;19929;-66
2022/11/22 00:04:17;;;;;;;2.47;0.80;;;17.50;99.90;;;;;;7402226;19;19923;-66
2022/11/22 00:06:47;;;;;;;2.25;0.57;;;17.40;99.90;;;;;;7402589;19;19923;-65
2022/11/22 00:09:16;;;;;;;1.90;0.60;;;17.40;99.90;;;;;;7403191;19;19929;-65
2022/11/22 00:11:45;;;;;;;2.50;0.60;;;17.40;99.90;;;;;;7402521;19;19939;-65
2022/11/22 00:14:14;;;;;;;2.20;0.40;;;17.40;99.90;;;;;;7403093;19;19933;-65
2022/11/22 00:16:43;;;;;;;2.47;0.75;;;17.30;99.90;;;;;;7401193;19;20342;-66
2022/11/22 00:19:15;;;;;;;1.88;0.40;;;17.30;99.90;;;;;;7405724;19;20291;-66
2022/11/22 00:21:44;;;;;;;1.88;0.65;;;17.30;99.90;;;;;;7408101;19;19919;-65
2022/11/22 00:24:14;;;;;;;2.10;0.68;;;17.30;99.90;;;;;;7407739;19;19948;-66
2022/11/22 00:26:43;;;;;;;1.77;0.65;;;17.20;99.90;;;;;;7408051;19;20535;-65
2022/11/22 00:29:13;;;;;;;1.88;0.60;;;17.20;99.90;;;;;;7410012;19;19922;-66
2022/11/22 00:31:42;;;;;;;3.72;0.60;;;17.20;99.90;;;;;;7411486;19;19994;-65
2022/11/22 00:34:13;;;;;;;1.90;0.50;;;17.20;99.90;;;;;;7407893;19;19922;-65
2022/11/22 00:36:42;;;;;;;2.10;0.70;;;17.20;99.90;;;;;;7408104;19;20013;-65
2022/11/22 00:39:11;;;;;;;2.20;0.52;;;17.20;99.90;;;;;;7410068;19;19922;-65
2022/11/22 00:41:40;;;;;;;1.45;0.57;;;17.10;99.90;;;;;;7407932;19;19944;-65
2022/11/22 00:44:10;;;;;;;4.22;1.10;;;17.10;99.90;;;;;;7407982;19;19930;-65
2022/11/22 00:46:40;;;;;;;1.92;0.35;;;17.10;99.90;;;;;;7408421;19;19921;-65
2022/11/22 00:49:09;;;;;;;2.38;0.70;;;17.10;99.90;;;;;;7411663;19;19936;-66
2022/11/22 00:51:40;;;;;;;2.17;0.70;;;17.10;99.90;;;;;;7408646;19;19931;-65
2022/11/22 00:54:09;;;;;;;1.85;0.55;;;17.10;99.90;;;;;;7407749;19;20628;-65
2022/11/22 00:56:38;;;;;;;2.10;0.55;;;17.00;99.90;;;;;;7405167;19;19918;-65
2022/11/22 00:59:07;;;;;;;2.85;0.50;;;17.00;99.90;;;;;;7408121;19;20374;-65
2022/11/22 01:01:37;;;;;;;1.85;0.40;;;17.00;99.90;;;;;;7407750;19;19987;-66
2022/11/22 01:04:06;;;;;;;2.55;0.50;;;17.00;99.90;;;;;;7407953;19;19923;-66
2022/11/22 01:06:35;;;;;;;1.70;0.45;;;17.00;99.90;;;;;;7408504;19;19915;-66
2022/11/22 01:09:06;;;;;;;2.15;0.68;;;17.00;99.90;;;;;;7407234;19;19981;-66
2022/11/22 01:11:35;;;;;;;1.92;0.52;;;16.90;99.90;;;;;;7404833;19;20202;-66
2022/11/22 01:14:06;;;;;;;2.40;0.80;;;16.90;99.90;;;;;;7405248;19;19974;-65
2022/11/22 01:16:37;;;;;;;1.75;0.40;;;16.90;99.90;;;;;;7405771;19;19918;-66
2022/11/22 01:19:07;;;;;;;2.50;0.88;;;16.90;99.90;;;;;;7408496;19;19919;-65
2022/11/22 01:21:36;;;;;;;2.20;0.43;;;16.90;99.90;;;;;;7407386;19;19919;-65
2022/11/22 01:24:09;;;;;;;2.55;0.47;;;16.80;99.90;;;;;;7409144;19;19919;-65
2022/11/22 01:26:38;;;;;;;1.65;0.60;;;16.90;99.90;;;;;;7405885;19;19919;-65
2022/11/22 01:29:07;;;;;;;1.90;0.40;;;16.80;99.90;;;;;;7407572;19;19922;-66
2022/11/22 01:31:36;;;;;;;1.70;0.40;;;16.80;99.90;;;;;;7406831;19;19922;-65
2022/11/22 01:34:07;;;;;;;2.17;0.50;;;16.80;99.90;;;;;;7405110;19;19919;-66
2022/11/22 01:36:36;;;;;;;2.38;0.50;;;16.80;99.90;;;;;;7404725;19;19922;-65
2022/11/22 01:39:08;;;;;;;2.00;0.70;;;16.80;99.90;;;;;;7406844;19;19943;-65
2022/11/22 01:41:37;;;;;;;2.22;0.68;;;16.70;99.90;;;;;;7410119;19;19926;-66
2022/11/22 01:44:23;;;;;;;2.15;0.50;;;16.70;99.90;;;;;;7408125;19;19932;-65
2022/11/22 01:46:57;;;;;;;2.03;0.57;;;16.70;99.90;;;;;;7406256;19;19923;-65
2022/11/22 01:49:31;;;;;;;1.60;0.32;;;16.70;99.90;;;;;;7406561;19;19918;-65
2022/11/22 01:52:04;;;;;;;2.42;0.82;;;16.70;99.90;;;;;;7406024;19;19933;-65
2022/11/22 01:54:41;;;;;;;1.20;0.30;;;16.70;99.90;;;;;;7408323;19;19922;-65
2022/11/22 01:57:15;;;;;;;1.58;0.57;;;16.70;99.90;;;;;;7407641;19;19918;-66
2022/11/22 01:59:48;;;;;;;1.65;0.60;;;16.70;99.90;;;;;;7407548;19;19919;-65
2022/11/22 02:02:23;;;;;;;3.58;0.40;;;16.60;99.90;;;;;;7405032;19;19985;-66
2022/11/22 02:04:54;;;;;;;1.67;0.50;;;16.60;99.90;;;;;;7406384;19;19919;-65
2022/11/22 02:07:28;;;;;;;2.20;0.40;;;16.60;99.90;;;;;;7404031;19;19935;-65
2022/11/22 02:10:00;;;;;;;1.80;0.40;;;16.60;99.90;;;;;;7408352;19;19919;-65
2022/11/22 02:12:31;;;;;;;1.55;0.47;;;16.60;99.90;;;;;;7405618;19;19982;-65
2022/11/22 02:15:00;;;;;;;1.65;0.52;;;16.60;99.90;;;;;;7409528;19;19929;-65
2022/11/22 02:17:30;;;;;;;1.88;0.38;;;16.60;99.90;;;;;;7408037;19;19952;-67
2022/11/22 02:19:59;;;;;;;1.77;0.40;;;16.60;99.90;;;;;;7409247;19;19931;-65
2022/11/22 02:22:35;;;;;;;2.08;0.50;;;16.50;99.90;;;;;;7406039;19;19918;-65
2022/11/22 02:25:14;;;;;;;1.73;0.70;;;16.50;99.90;;;;;;7407193;19;20401;-66
2022/11/22 02:27:46;;;;;;;2.70;0.47;;;16.50;99.90;;;;;;7404915;19;19919;-65
2022/11/22 02:30:16;;;;;;;1.75;0.50;;;16.50;99.90;;;;;;7408409;19;19929;-65
2022/11/22 02:32:44;;;;;;;;;;;16.50;99.90;;;;;;7410725;19;19918;-65
2022/11/22 02:35:20;;;;;;;1.77;0.50;;;16.50;99.90;;;;;;7407565;19;19926;-65
2022/11/22 02:37:50;;;;;;;2.35;0.60;;;16.50;99.90;;;;;;7405130;19;20328;-65
2022/11/22 02:40:20;;;;;;;1.95;0.60;;;16.50;99.90;;;;;;7406552;19;19927;-65
2022/11/22 02:42:57;;;;;;;1.67;0.55;;;16.50;99.90;;;;;;7403503;19;19914;-65
2022/11/22 02:45:26;;;;;;;2.47;0.50;;;16.50;99.90;;;;;;7408042;19;19978;-65
2022/11/22 02:48:05;;;;;;;2.25;0.50;;;16.40;99.90;;;;;;7404505;19;19918;-65
2022/11/22 02:50:34;;;;;;;1.45;0.40;;;16.40;99.90;;;;;;7406492;19;19935;-65
2022/11/22 02:53:03;;;;;;;1.65;0.35;;;16.40;99.90;;;;;;7405315;19;20566;-64
2022/11/22 02:55:32;;;;;;;2.95;0.65;;;16.40;99.90;;;;;;7403902;19;19919;-65
2022/11/22 02:58:04;;;;;;;1.55;0.40;;;16.40;99.90;;;;;;7407349;19;19929;-65
2022/11/22 03:00:34;;;;;;;1.60;0.50;;;16.40;99.90;;;;;;7408786;19;20287;-65
2022/11/22 03:03:03;;;;;;;1.95;0.45;;;16.40;99.90;;;;;;7404589;19;20358;-65
2022/11/22 03:05:32;;;;;;;2.33;0.60;;;16.40;99.90;;;;;;7407249;19;19947;-65
2022/11/22 03:08:01;;;;;;;1.98;0.60;;;16.40;99.90;;;;;;7405251;19;20421;-65
2022/11/22 03:10:30;;;;;;;1.73;0.43;;;16.40;99.90;;;;;;7405387;19;20322;-65
2022/11/22 03:12:59;;;;;;;1.75;0.52;;;16.40;99.90;;;;;;7403943;19;20366;-65
2022/11/22 03:15:31;;;;;;;2.20;0.50;;;16.40;99.90;;;;;;7404287;19;19929;-65
2022/11/22 03:18:00;;;;;;;1.48;0.50;;;16.40;99.90;;;;;;7404121;19;19924;-65
2022/11/22 03:20:29;;;;;;;2.45;0.70;;;16.30;99.90;;;;;;7405794;19;20337;-64
2022/11/22 03:22:59;;;;;;;2.58;0.70;;;16.30;99.90;;;;;;7405439;19;19919;-64
2022/11/22 03:25:28;;;;;;;1.38;0.32;;;16.30;99.90;;;;;;7405440;19;19986;-64
2022/11/22 03:27:58;;;;;;;;;;;16.40;99.90;;;;;;7406121;19;19919;-65
2022/11/22 03:30:26;;;;;;;2.08;0.73;;;16.40;99.90;;;;;;7406299;19;19926;-65
2022/11/22 03:32:58;;;;;;;2.13;0.50;;;16.40;99.90;;;;;;7403222;19;19922;-65
2022/11/22 03:35:27;;;;;;;1.42;0.52;;;16.30;99.90;;;;;;7404566;19;19922;-65
2022/11/22 03:37:56;;;;;;;2.03;0.50;;;16.30;99.90;;;;;;7400997;19;19926;-65
2022/11/22 03:40:25;;;;;;;2.22;0.75;;;16.30;99.90;;;;;;7404175;19;19922;-64
2022/11/22 03:42:54;;;;;;;1.50;0.50;;;16.30;99.90;;;;;;7402818;19;19922;-65
2022/11/22 03:45:23;;;;;;;1.88;0.47;;;16.30;99.90;;;;;;7400505;19;19914;-65
2022/11/22 03:47:52;;;;;;;1.30;0.45;;;16.30;99.90;;;;;;7406976;19;20353;-65
2022/11/22 03:50:24;;;;;;;1.70;0.55;;;16.30;99.90;;;;;;7401960;19;20128;-65
2022/11/22 03:52:53;;;;;;;1.83;0.40;;;16.30;99.90;;;;;;7406818;19;19918;-65
2022/11/22 03:55:22;;;;;;;2.10;0.47;;;16.20;99.90;;;;;;7404233;19;19934;-65
2022/11/22 03:57:51;;;;;;;1.30;0.20;;;16.20;99.90;;;;;;7408483;19;19930;-65
2022/11/22 04:00:20;;;;;;;2.33;0.60;;;16.30;99.90;;;;;;7408321;19;19939;-65
2022/11/22 04:02:49;;;;;;;1.88;0.65;;;16.20;99.90;;;;;;7409335;19;19932;-65
2022/11/22 04:05:18;;;;;;;1.70;0.55;;;16.20;99.90;;;;;;7409127;19;19925;-65
2022/11/22 04:07:54;;;;;;;2.15;0.43;;;16.20;99.90;;;;;;7406546;19;19925;-65
2022/11/22 04:10:23;;;;;;;;;;;16.20;99.90;;;;;;7412276;19;19922;-65
2022/11/22 04:12:52;;;;;;;2.08;0.60;;;16.20;99.90;;;;;;7409371;19;19970;-65
2022/11/22 04:15:19;;;;;;;1.30;0.30;;;16.20;99.90;;;;;;7410924;19;19930;-65
2022/11/22 04:17:48;;;;;;;1.65;0.43;;;16.20;99.90;;;;;;7406913;19;20288;-65
2022/11/22 04:23:05;;;;;;;1.10;0.30;;;16.20;99.90;;;;;;7409660;19;20271;-65
2022/11/22 04:25:36;;;;;;;2.05;0.63;;;16.20;99.90;;;;;;7411296;19;19923;-65
2022/11/22 04:28:06;;;;;;;1.70;0.40;;;16.20;99.90;;;;;;7407568;19;19914;-64
2022/11/22 04:33:17;;;;;;;1.48;0.57;;;16.20;99.90;;;;;;7408480;19;19915;-66
2022/11/22 04:35:47;;;;;;;1.70;0.50;;;16.10;99.90;;;;;;7408047;19;19940;-65
2022/11/22 04:38:19;;;;;;;1.58;0.38;;;16.10;99.90;;;;;;7407418;19;20287;-65
2022/11/22 04:40:49;;;;;;;1.30;0.20;;;16.10;99.90;;;;;;7407904;19;19911;-65
2022/11/22 04:46:04;;;;;;;1.80;0.30;;;16.10;99.90;;;;;;7411357;19;19936;-65
2022/11/22 04:48:33;;;;;;;;;;;16.10;99.90;;;;;;7412207;19;19923;-65
2022/11/22 04:53:47;;;;;;;2.65;0.60;;;16.10;99.90;;;;;;7410079;19;19926;-65
2022/11/22 04:56:16;;;;;;;1.58;0.43;;;16.10;99.90;;;;;;7406638;19;19915;-65
2022/11/22 04:58:46;;;;;;;1.63;0.52;;;16.10;99.90;;;;;;7407736;19;19915;-66
2022/11/22 05:01:14;;;;;;;1.23;0.38;;;16.10;99.90;;;;;;7407538;19;19914;-66
2022/11/22 05:03:43;;;;;;;1.58;0.32;;;16.10;99.90;;;;;;7407170;19;19915;-65
2022/11/22 05:06:16;;;;;;;1.55;0.50;;;16.10;99.90;;;;;;7406479;19;19921;-64
2022/11/22 05:08:48;;;;;;;1.58;0.52;;;16.10;99.90;;;;;;7408773;19;20356;-65
2022/11/22 05:11:17;;;;;;;1.42;0.30;;;16.10;99.90;;;;;;7407620;19;19919;-66
2022/11/22 05:13:46;;;;;;;1.98;0.55;;;16.10;99.90;;;;;;7406591;19;20252;-65
2022/11/22 05:16:16;;;;;;;2.15;0.50;;;16.10;99.90;;;;;;7406661;19;19926;-64
2022/11/22 05:18:57;;;;;;;1.42;0.50;;;16.00;99.90;;;;;;7407843;19;20359;-64
2022/11/22 05:21:27;;;;;;;1.55;0.40;;;16.00;99.90;;;;;;7408268;19;19925;-64
2022/11/22 05:23:57;;;;;;;1.77;0.30;;;16.00;99.90;;;;;;7409856;19;19918;-64
2022/11/22 05:26:27;;;;;;;1.70;0.60;;;16.00;99.90;;;;;;7408681;19;19933;-64
2022/11/22 05:28:57;;;;;;;1.35;0.40;;;16.00;99.90;;;;;;7406016;19;19930;-64
2022/11/22 05:31:28;;;;;;;1.27;0.32;;;16.00;99.90;;;;;;7407131;19;19915;-64
2022/11/22 05:33:58;;;;;;;1.17;0.30;;;16.00;99.90;;;;;;7406616;19;19948;-64
2022/11/22 05:36:33;;;;;;;1.27;0.30;;;16.00;99.90;;;;;;7405331;19;19918;-65
2022/11/22 05:39:05;;;;;;;1.65;0.52;;;16.00;99.90;;;;;;7406439;19;19932;-64
2022/11/22 05:41:34;;;;;;;1.40;0.43;;;16.00;99.90;;;;;;7406614;19;19939;-64
2022/11/22 05:44:03;;;;;;;1.23;0.40;;;16.00;99.90;;;;;;7406552;19;19927;-64
2022/11/22 05:46:32;;;;;;;1.40;0.40;;;16.00;99.90;;;;;;7408470;19;19923;-64
2022/11/22 05:49:01;;;;;;;1.58;0.40;;;16.00;99.90;;;;;;7405274;19;19974;-65
2022/11/22 05:51:31;;;;;;;1.92;0.47;;;16.00;99.90;;;;;;7407242;19;19911;-65
2022/11/22 05:54:00;;;;;;;1.70;0.50;;;16.00;99.90;;;;;;7406318;19;19915;-64
2022/11/22 05:56:32;;;;;;;1.48;0.45;;;16.00;99.90;;;;;;7407809;19;19944;-64
2022/11/22 05:59:01;;;;;;;1.80;0.40;;;15.90;99.90;;;;;;7404710;19;19918;-64
2022/11/22 06:01:29;;;;;;;1.10;0.25;;;15.90;99.90;;;;;;7409091;19;19921;-64
2022/11/22 06:03:58;;;;;;;1.65;0.57;;;16.00;99.90;;;;;;7407261;19;19979;-65
2022/11/22 06:06:27;;;;;;;1.48;0.55;;;16.00;99.90;;;;;;7409316;19;20329;-64
2022/11/22 06:08:56;;;;;;;1.85;0.47;;;15.90;99.90;;;;;;7405524;19;19914;-64
2022/11/22 06:11:27;;;;;;;1.35;0.40;;;15.90;99.90;;;;;;7405451;19;19923;-65
2022/11/22 06:14:02;;;;;;;2.40;0.52;;;16.00;99.90;;;;;;7408093;19;19943;-64
2022/11/22 06:16:31;;;;;;;2.28;0.50;;;15.90;99.90;;;;;;7409266;19;19919;-64
2022/11/22 06:19:00;;;;;;;1.55;0.60;;;16.00;99.90;;;;;;7400506;19;20285;-64
2022/11/22 06:21:29;;;;;;;1.73;0.70;;;15.90;99.90;;;;;;7408676;19;19926;-64
2022/11/22 06:23:58;;;;;;;1.85;0.47;;;15.90;99.90;;;;;;7405529;19;19931;-64
2022/11/22 06:26:28;;;;;;;1.25;0.20;;;16.00;99.90;;;;;;7404879;19;19919;-64
2022/11/22 06:28:59;;;;;;;1.30;0.22;;;15.90;99.90;;;;;;7406012;19;19932;-64
2022/11/22 06:31:30;;;;;;;2.28;0.55;;;15.90;99.90;;;;;;7408162;19;20265;-64
2022/11/22 06:34:01;;;;;;;1.33;0.30;;;15.90;99.90;;;;;;7407213;19;19922;-64
2022/11/22 06:36:31;;;;;;;1.80;0.52;;;15.90;99.90;;;;;;7404695;19;19919;-64
2022/11/22 06:39:00;;;;;;;1.35;0.40;;;15.90;99.90;;;;;;7403745;19;19923;-64
2022/11/22 06:41:34;;;;;;;1.58;0.43;;;15.90;99.90;;;;;;7405456;19;19921;-64
2022/11/22 06:44:07;;;;;;;2.15;0.45;;;15.90;99.90;;;;;;7404547;19;19974;-64
2022/11/22 06:46:37;;;;;;;1.48;0.30;;;15.90;99.90;;;;;;7405279;19;19940;-65
2022/11/22 06:49:06;;;;;;;1.30;0.38;;;15.90;99.90;;;;;;7409026;19;19918;-63
2022/11/22 06:51:36;;;;;;;1.90;0.52;;;15.90;99.90;;;;;;7407081;19;20323;-64
2022/11/22 06:54:05;;;;;;;1.08;0.40;;;15.90;99.90;;;;;;7404761;19;19914;-64
2022/11/22 06:56:38;;;;;;;2.15;0.35;;;15.90;99.90;;;;;;7404733;19;19922;-64
2022/11/22 06:59:10;;;;;;;1.17;0.35;;;15.90;99.90;;;;;;7402868;19;19943;-64
2022/11/22 07:01:40;;;;;;;1.30;0.68;;;15.90;99.90;;;;;;7403209;19;19910;-64
2022/11/22 07:04:09;;;;;;;2.08;0.40;;;15.90;99.90;;;;;;7402454;19;19926;-65
2022/11/22 07:06:40;;;;;;;1.33;0.40;;;15.90;99.90;;;;;;7402762;19;20283;-65
2022/11/22 07:09:11;;;;;;;1.50;0.45;;;15.90;99.90;;;;;;7404284;19;20333;-64
2022/11/22 07:11:42;;;;;;;1.40;0.47;;;15.90;99.90;;;;;;7400083;19;19918;-64
2022/11/22 07:14:13;;;;;;;2.60;0.75;;;15.90;99.90;;;;;;7403570;19;19924;-64
2022/11/22 07:16:42;;;;;;;2.47;0.63;;;15.90;99.90;;;;;;7404156;19;19915;-64
2022/11/22 07:19:12;;;;;;;2.15;0.52;;;15.90;99.90;;;;;;7404182;19;19929;-64
2022/11/22 07:21:41;;;;;;;2.10;0.60;;;15.90;99.90;;;;;;7403790;19;19930;-64
2022/11/22 07:24:11;;;;;;;3.47;0.50;;;15.90;99.90;;;;;;7406540;19;19943;-64
2022/11/22 07:26:40;;;;;;;3.10;0.60;;;15.90;99.90;;;;;;7401837;19;19923;-64
2022/11/22 07:29:09;;;;;;;2.40;0.77;;;15.90;99.90;;;;;;7402644;19;19949;-65
2022/11/22 07:31:41;;;;;;;1.92;0.60;;;15.90;99.90;;;;;;7404044;19;19922;-64
2022/11/22 07:34:10;;;;;;;1.58;0.40;;;15.80;99.90;;;;;;7402217;19;19922;-65
2022/11/22 07:36:39;;;;;;;1.60;0.70;;;15.90;99.90;;;;;;7402809;19;20264;-65
2022/11/22 07:39:07;;;;;;;0.90;0.20;;;15.90;99.90;;;;;;7401263;19;19914;-64
2022/11/22 07:41:36;;;;;;;1.63;0.38;;;15.80;99.90;;;;;;7405553;19;19930;-65
2022/11/22 07:44:07;;;;;;;1.45;0.40;;;15.80;99.90;;;;;;7403597;19;19947;-64
2022/11/22 07:46:36;;;;;;;1.52;0.30;;;15.90;99.90;;;;;;7402273;19;19915;-64
2022/11/22 07:49:07;;;;;;;1.20;0.20;;;15.80;99.90;;;;;;7403347;19;19919;-64
2022/11/22 07:51:37;;;;;;;2.25;0.50;;;15.90;99.90;;;;;;7404502;19;19918;-64
2022/11/22 07:54:06;;;;;;;1.63;0.40;;;15.90;99.90;;;;;;7398185;19;19933;-64
2022/11/22 07:56:36;;;;;;;1.35;0.40;;;15.80;99.90;;;;;;7404037;19;19919;-65
2022/11/22 07:59:05;;;;;;;2.10;0.30;;;15.90;99.90;;;;;;7399974;19;20373;-64
2022/11/22 08:01:34;;;;;;;1.20;0.30;;;15.80;99.90;;;;;;7402685;19;19944;-64
2022/11/22 08:04:03;;;;;;;1.55;0.40;;;15.80;99.90;;;;;;7401442;19;19933;-65
2022/11/22 08:06:35;;;;;;;1.10;0.45;;;15.80;99.90;;;;;;7396425;19;20339;-64
2022/11/22 08:09:04;;;;;;;1.10;0.30;;;15.80;99.90;;;;;;7404777;19;19951;-64
2022/11/22 08:11:33;;;;;;;1.30;0.28;;;15.80;99.90;;;;;;7401794;19;20276;-66
2022/11/22 08:14:02;;;;;;;1.30;0.55;;;15.80;99.90;;;;;;7404328;19;19943;-64
2022/11/22 08:16:30;;;;;;;1.92;0.38;;;15.80;99.90;;;;;;7402144;19;20358;-64
2022/11/22 08:19:03;;;;;;;1.80;0.50;;;15.80;99.90;;;;;;7401547;19;19930;-64
2022/11/22 08:21:35;;;;;;;1.95;0.45;;;15.80;99.90;;;;;;7401458;19;19986;-64
2022/11/22 08:24:04;;;;;;;1.58;0.28;;;15.80;99.90;;;;;;7399376;19;19919;-64
2022/11/22 08:26:33;;;;;;;1.60;0.38;;;15.80;99.90;;;;;;7402396;19;19926;-65
2022/11/22 08:29:02;;;;;;;1.75;0.35;;;15.80;99.90;;;;;;7401515;19;19919;-65
2022/11/22 08:31:31;;;;;;;1.67;0.40;;;15.80;99.90;;;;;;7401742;19;19929;-64
2022/11/22 08:34:00;;;;;;;1.50;0.30;;;15.80;99.90;;;;;;7401539;19;20344;-65
2022/11/22 08:36:29;;;;;;;1.48;0.40;;;15.80;99.90;;;;;;7404230;19;20013;-65
2022/11/22 08:39:01;;;;;;;1.15;0.43;;;15.80;99.90;;;;;;7399914;19;19951;-64
2022/11/22 08:41:30;;;;;;;1.70;0.50;;;15.80;99.90;;;;;;7403139;19;20341;-65
2022/11/22 08:43:59;;;;;;;1.15;0.38;;;15.80;99.90;;;;;;7406569;19;20392;-64
2022/11/22 08:46:28;;;;;;;1.48;0.50;;;15.80;99.90;;;;;;7408283;19;19915;-64
2022/11/22 08:48:57;;;;;;;2.00;0.52;;;15.80;99.90;;;;;;7409060;19;19931;-65
2022/11/22 08:51:26;;;;;;;1.42;0.30;;;15.80;99.90;;;;;;7410133;19;20021;-64
2022/11/22 08:53:55;;;;;;;;;;;15.80;99.90;;;;;;7410105;19;19947;-65
2022/11/22 08:56:27;;;;;;;1.70;0.35;;;15.80;99.90;;;;;;7411299;19;20219;-65
2022/11/22 08:58:56;;;;;;;1.67;0.30;;;15.80;99.90;;;;;;7405975;19;19919;-64
2022/11/22 09:01:25;;;;;;;1.60;0.30;;;15.70;99.90;;;;;;7406832;19;19918;-65
2022/11/22 09:03:55;;;;;;;1.23;0.40;;;15.80;99.90;;;;;;7407231;19;19930;-64
2022/11/22 09:06:24;;;;;;;1.27;0.30;;;15.80;99.90;;;;;;7407436;19;19922;-64
2022/11/22 09:08:53;;;;;;;2.03;0.40;;;15.80;99.90;;;;;;7408242;19;20237;-65
2022/11/22 09:11:22;;;;;;;1.65;0.57;;;15.70;99.90;;;;;;7407221;19;19918;-64
2022/11/22 09:13:54;;;;;;;1.55;0.47;;;15.80;99.90;;;;;;7407700;19;19925;-64
2022/11/22 09:16:24;;;;;;;1.30;0.35;;;15.70;99.90;;;;;;7406799;19;19935;-64
2022/11/22 09:18:53;;;;;;;1.67;0.47;;;15.80;99.90;;;;;;7405322;19;20258;-65
2022/11/22 09:21:22;;;;;;;1.50;0.40;;;15.80;99.90;;;;;;7407110;19;19914;-65
2022/11/22 09:23:53;;;;;;;0.98;0.20;;;15.80;99.90;;;;;;7405454;19;19935;-64
2022/11/22 09:26:25;;;;;;;1.30;0.30;;;15.70;99.90;;;;;;7406729;19;19915;-65
2022/11/22 09:28:58;;;;;;;1.73;0.30;;;15.80;99.90;;;;;;7407010;19;20370;-65
2022/11/22 09:31:28;;;;;;;1.45;0.38;;;15.80;99.90;;;;;;7406440;19;19947;-65
2022/11/22 09:33:57;;;;;;;1.30;0.40;;;15.80;99.90;;;;;;7406728;19;20360;-65
2022/11/22 09:36:27;;;;;;;1.50;0.35;;;15.80;99.90;;;;;;7407135;19;19914;-64
2022/11/22 09:38:57;;;;;;;1.77;0.50;;;15.80;99.90;;;;;;7404829;19;20287;-64
2022/11/22 09:41:41;;;;;;;;;;;15.80;99.90;;;;;;7409194;19;19918;-64
2022/11/22 09:44:19;;;;;;;1.75;0.65;;;15.80;99.90;;;;;;7406136;19;19924;-64
2022/11/22 09:46:55;;;;;;;1.17;0.40;;;15.80;99.90;;;;;;7406526;19;19928;-65
2022/11/22 09:49:30;;;;;;;1.65;0.30;;;15.80;99.90;;;;;;7406458;19;20329;-64
2022/11/22 09:52:08;;;;;;;1.55;0.30;;;15.80;99.90;;;;;;7406056;19;19944;-65
2022/11/22 09:54:44;;;;;;;1.33;0.47;;;15.80;99.90;;;;;;7406076;19;20242;-65
2022/11/22 09:57:19;;;;;;;1.48;0.38;;;15.80;99.90;;;;;;7406072;19;19914;-65
2022/11/22 10:00:00;;;;;;;1.25;0.30;;;15.80;99.90;;;;;;7407753;19;19918;-65
2022/11/22 10:02:35;;;;;;;1.60;0.43;;;15.80;99.90;;;;;;7403887;19;19928;-65
2022/11/22 10:05:14;;;;;;;2.90;0.47;;;15.80;99.90;;;;;;7406200;19;19944;-64
2022/11/22 10:07:49;;;;;;;1.30;0.40;;;15.80;99.90;;;;;;7404914;19;19919;-65
2022/11/22 10:10:23;;;;;;;1.55;0.30;;;15.80;99.90;;;;;;7405621;19;19922;-65
2022/11/22 10:12:58;;;;;;;1.73;0.35;;;15.80;99.90;;;;;;7406357;19;19918;-65
2022/11/22 10:15:34;;;;;;;1.30;0.30;;;15.80;99.90;;;;;;7408183;19;19922;-65
2022/11/22 10:18:08;;;;;;;1.27;0.40;;;15.80;99.90;;;;;;7403439;19;20256;-64
2022/11/22 10:20:41;;;;;;;2.03;0.65;;;15.80;99.90;;;;;;7405624;19;20384;-64
2022/11/22 10:23:18;;;;;;;1.67;0.35;;;15.80;99.90;;;;;;7405754;19;19974;-64
2022/11/22 10:25:53;;;;;;;3.00;0.30;;;15.80;99.90;;;;;;7405604;19;19956;-65
2022/11/22 10:28:29;;;;;;;1.95;0.60;;;15.80;99.90;;;;;;7403758;19;20251;-64
2022/11/22 10:31:08;;;;;;;1.33;0.30;;;15.80;99.90;;;;;;7405207;19;19961;-64
2022/11/22 10:33:43;;;;;;;1.95;0.50;;;15.80;99.90;;;;;;7405320;19;19922;-64
2022/11/22 10:36:30;;;;;;;1.65;0.43;;;15.80;99.90;;;;;;7405501;19;19982;-64
2022/11/22 10:39:12;;;;;;;1.50;0.40;;;15.80;99.90;;;;;;7403749;19;19986;-64
2022/11/22 10:41:55;;;;;;;2.13;0.40;;;15.70;99.90;;;;;;7404720;19;19910;-64
2022/11/22 10:44:41;;;;;;;2.53;0.40;;;15.80;99.90;;;;;;7405287;19;19914;-64
2022/11/22 10:47:23;;;;;;;2.28;0.32;;;15.80;99.90;;;;;;7406103;19;20365;-64
2022/11/22 10:49:59;;;;;;;1.50;0.40;;;15.80;99.90;;;;;;7404453;19;19939;-65
2022/11/22 10:52:42;;;;;;;2.05;0.45;;;15.80;99.90;;;;;;7399886;19;20517;-67
2022/11/22 10:55:24;;;;;;;2.60;0.20;;;15.80;99.90;;;;;;7405432;19;19988;-64
2022/11/22 10:58:02;;;;;;;2.47;0.30;;;15.90;99.90;;;;;;7403625;19;19918;-64
2022/11/22 11:00:35;;;;;;;4.07;0.60;;;16.00;99.90;;;;;;7406805;19;19996;-62
2022/11/22 11:03:33;;;;;;;3.00;0.50;;;16.10;99.90;;;;;;7407335;19;20422;-64
2022/11/22 11:06:09;;;;;;;3.80;0.73;;;16.20;99.90;;;;;;7401845;19;19943;-64
2022/11/22 11:08:41;;;;;;;2.55;0.60;;;16.30;99.90;;;;;;7402294;19;20360;-64
2022/11/22 11:11:11;;;;;;;2.13;0.52;;;16.50;99.90;;;;;;7402677;19;20342;-63
2022/11/22 11:13:45;;;;;;;2.42;0.50;;;16.60;99.90;;;;;;7403149;19;19919;-63
2022/11/22 11:16:19;;;;;;;1.85;0.32;;;16.70;99.90;;;;;;7406895;19;20337;-64
2022/11/22 11:18:56;;;;;;;1.73;0.43;;;16.80;99.90;;;;;;7402781;19;20314;-63
2022/11/22 11:21:25;;;;;;;2.28;0.30;;;16.90;99.90;;;;;;7408413;19;19939;-62
2022/11/22 11:23:54;;;;;;;1.98;0.30;;;16.90;99.90;;;;;;7403681;19;19915;-63
2022/11/22 11:26:28;;;;;;;2.50;0.30;;;17.00;99.90;;;;;;7403360;19;19907;-63
2022/11/22 11:29:33;;;;;;;1.38;0.20;;;17.10;99.90;;;;;;7405081;19;19923;-64
2022/11/22 11:32:12;;;;;;;1.90;0.20;;;17.10;99.90;;;;;;7406224;19;19949;-64
2022/11/22 11:34:50;;;;;;;1.50;0.25;;;17.20;99.90;;;;;;7402667;19;19921;-64
2022/11/22 11:37:27;;;;;;;1.63;0.22;;;17.30;99.90;;;;;;7406335;19;19922;-64
2022/11/22 11:39:59;;;;;;;1.48;0.32;;;17.30;99.90;;;;;;7399685;19;19922;-64
2022/11/22 11:42:31;;;;;;;2.05;0.30;;;17.40;99.90;;;;;;7405483;19;19923;-65
2022/11/22 11:45:29;;;;;;;1.33;0.20;;;17.40;99.90;;;;;;7403678;19;19925;-64
2022/11/22 11:47:58;;;;;;;3.05;0.57;;;17.40;99.90;;;;;;7405399;19;19918;-70
2022/11/22 11:50:31;;;;;;;1.98;0.22;;;17.50;99.90;;;;;;7403089;19;19927;-70
2022/11/22 11:53:07;;;;;;;1.20;0.22;;;17.50;99.90;;;;;;7404970;19;19914;-70
2022/11/22 11:55:38;;;;;;;3.20;0.43;;;17.50;99.90;;;;;;7401488;19;19914;-70
2022/11/22 11:58:24;;;;;;;1.67;0.30;;;17.50;99.90;;;;;;7406028;19;19918;-70
2022/11/22 12:00:53;;;;;;;1.83;0.20;;;17.60;99.90;;;;;;7404807;19;20020;-70
2022/11/22 12:03:26;;;;;;;2.22;0.20;;;17.70;99.90;;;;;;7402265;19;19918;-70
2022/11/22 12:06:19;;;;;;;1.55;0.40;;;17.70;99.90;;;;;;7403676;19;19926;-70
2022/11/22 12:09:28;;;;;;;1.73;0.20;;;17.70;99.90;;;;;;7404391;19;20268;-70
2022/11/22 12:12:39;;;;;;;2.65;0.28;;;17.70;99.90;;;;;;7405687;19;19910;-70
2022/11/22 12:15:36;;;;;;;1.38;0.20;;;17.70;99.90;;;;;;7401463;19;19958;-70
2022/11/22 12:18:13;;;;;;;2.30;0.30;;;17.70;99.90;;;;;;7410475;19;20405;-70
2022/11/22 12:20:48;;;;;;;2.70;0.25;;;17.70;99.90;;;;;;7412392;19;19926;-70
2022/11/22 12:23:25;;;;;;;1.58;0.30;;;17.80;99.90;;;;;;7410222;19;20347;-70
2022/11/22 12:25:57;;;;;;;1.17;0.20;;;17.80;99.90;;;;;;7407669;19;19919;-70
2022/11/22 12:28:29;;;;;;;1.08;0.20;;;17.80;99.90;;;;;;7409019;19;19927;-67
2022/11/22 12:31:03;;;;;;;1.50;0.20;;;17.80;99.90;;;;;;7404544;19;19930;-66
2022/11/22 12:33:44;;;;;;;1.58;0.40;;;17.80;99.90;;;;;;7409005;19;20007;-66
2022/11/22 12:36:16;;;;;;;;;;;17.80;99.90;;;;;;7412639;19;19925;-65
2022/11/22 12:38:51;;;;;;;1.27;0.10;;;17.80;99.90;;;;;;7408829;19;19982;-66
2022/11/22 12:41:24;;;;;;;1.63;0.20;;;17.80;99.90;;;;;;7408215;19;19914;-66
2022/11/22 12:43:56;;;;;;;2.05;0.20;;;17.80;99.90;;;;;;7408355;19;19921;-66
2022/11/22 12:46:31;;;;;;;1.25;0.10;;;17.80;99.90;;;;;;7407845;19;19929;-66
2022/11/22 12:49:06;;;;;;;1.50;0.30;;;17.80;99.90;;;;;;7408261;19;19929;-67
2022/11/22 12:51:44;;;;;;;1.48;0.20;;;17.80;99.90;;;;;;7410573;19;20269;-66
2022/11/22 12:54:19;;;;;;;1.23;0.20;;;17.90;99.90;;;;;;7407497;19;19931;-66
2022/11/22 12:56:53;;;;;;;2.75;0.22;;;17.90;99.90;;;;;;7410564;19;19918;-66
2022/11/22 12:59:34;;;;;;;2.85;0.35;;;17.90;99.90;;;;;;7407484;19;19925;-65
2022/11/22 13:02:23;;;;;;;1.10;0.13;;;17.90;99.90;;;;;;7408044;19;19915;-66
2022/11/22 13:04:57;;;;;;;1.10;0.13;;;17.90;99.90;;;;;;7408240;19;19915;-66
2022/11/22 13:07:35;;;;;;;1.63;0.30;;;17.90;99.90;;;;;;7406226;19;19922;-66
2022/11/22 13:10:13;;;;;;;1.65;0.38;;;17.90;99.90;;;;;;7405429;19;19922;-66
2022/11/22 13:12:44;;;;;;;1.77;0.20;;;17.90;99.90;;;;;;7404564;19;19918;-65
2022/11/22 13:15:15;;;;;;;1.27;0.22;;;17.90;99.90;;;;;;7404242;19;19939;-66
2022/11/22 13:17:46;;;;;;;1.17;0.25;;;17.90;99.90;;;;;;7408900;19;19929;-67
2022/11/22 13:20:21;;;;;;;1.35;0.10;;;17.90;99.90;;;;;;7406718;19;19981;-67
2022/11/22 13:23:01;;;;;;;1.88;0.13;;;17.90;99.90;;;;;;7407853;19;19927;-67
2022/11/22 13:25:49;;;;;;;0.70;0.13;;;17.90;99.90;;;;;;7408100;19;19922;-67